sensor_id;sensor_type;location;lat;lon;timestamp;P1;durP1;ratioP1;P2;durP2;ratioP2
61709;SDS011;47633;51.494;5.386;2023-02-03T00:01:54;4.32;;;1.80;;
61709;SDS011;47633;51.494;5.386;2023-02-03T00:04:19;5.93;;;1.88;;
61709;SDS011;47633;51.494;5.386;2023-02-03T00:06:44;4.90;;;1.65;;
61709;SDS011;47633;51.494;5.386;2023-02-03T00:09:11;4.07;;;1.70;;
61709;SDS011;47633;51.494;5.386;2023-02-03T00:11:36;5.00;;;1.88;;
61709;SDS011;47633;51.494;5.386;2023-02-03T00:14:01;5.65;;;1.85;;
61709;SDS011;47633;51.494;5.386;2023-02-03T00:16:29;6.78;;;1.75;;
61709;SDS011;47633;51.494;5.386;2023-02-03T00:18:54;5.40;;;1.90;;
61709;SDS011;47633;51.494;5.386;2023-02-03T00:21:20;5.67;;;2.60;;
61709;SDS011;47633;51.494;5.386;2023-02-03T00:23:45;6.45;;;1.90;;
61709;SDS011;47633;51.494;5.386;2023-02-03T00:26:11;5.72;;;2.03;;
61709;SDS011;47633;51.494;5.386;2023-02-03T00:28:39;5.82;;;1.80;;
61709;SDS011;47633;51.494;5.386;2023-02-03T00:31:05;6.47;;;2.33;;
61709;SDS011;47633;51.494;5.386;2023-02-03T00:33:30;5.30;;;2.00;;
61709;SDS011;47633;51.494;5.386;2023-02-03T00:35:57;7.00;;;2.10;;
61709;SDS011;47633;51.494;5.386;2023-02-03T00:38:25;6.38;;;2.13;;
61709;SDS011;47633;51.494;5.386;2023-02-03T00:40:52;7.30;;;2.00;;
61709;SDS011;47633;51.494;5.386;2023-02-03T00:43:18;3.33;;;1.40;;
61709;SDS011;47633;51.494;5.386;2023-02-03T00:45:44;7.70;;;2.22;;
61709;SDS011;47633;51.494;5.386;2023-02-03T00:48:09;5.30;;;1.50;;
61709;SDS011;47633;51.494;5.386;2023-02-03T00:50:34;4.72;;;1.77;;
61709;SDS011;47633;51.494;5.386;2023-02-03T00:53:00;5.50;;;1.60;;
61709;SDS011;47633;51.494;5.386;2023-02-03T00:55:25;8.20;;;2.20;;
61709;SDS011;47633;51.494;5.386;2023-02-03T00:57:50;4.22;;;1.52;;
61709;SDS011;47633;51.494;5.386;2023-02-03T01:00:16;4.75;;;1.80;;
61709;SDS011;47633;51.494;5.386;2023-02-03T01:02:43;4.97;;;1.67;;
61709;SDS011;47633;51.494;5.386;2023-02-03T01:05:08;7.03;;;1.92;;
61709;SDS011;47633;51.494;5.386;2023-02-03T01:07:34;6.32;;;2.00;;
61709;SDS011;47633;51.494;5.386;2023-02-03T01:09:59;4.77;;;1.93;;
61709;SDS011;47633;51.494;5.386;2023-02-03T01:12:24;5.03;;;1.70;;
61709;SDS011;47633;51.494;5.386;2023-02-03T01:14:50;5.50;;;1.90;;
61709;SDS011;47633;51.494;5.386;2023-02-03T01:17:15;6.93;;;2.35;;
61709;SDS011;47633;51.494;5.386;2023-02-03T01:19:40;4.90;;;1.90;;
61709;SDS011;47633;51.494;5.386;2023-02-03T01:22:05;6.10;;;1.95;;
61709;SDS011;47633;51.494;5.386;2023-02-03T01:24:31;8.18;;;2.22;;
61709;SDS011;47633;51.494;5.386;2023-02-03T01:26:56;5.65;;;1.85;;
61709;SDS011;47633;51.494;5.386;2023-02-03T01:29:21;5.50;;;2.08;;
61709;SDS011;47633;51.494;5.386;2023-02-03T01:31:47;4.38;;;1.65;;
61709;SDS011;47633;51.494;5.386;2023-02-03T01:34:12;6.30;;;1.60;;
61709;SDS011;47633;51.494;5.386;2023-02-03T01:36:40;6.20;;;2.08;;
61709;SDS011;47633;51.494;5.386;2023-02-03T01:39:06;4.13;;;1.90;;
61709;SDS011;47633;51.494;5.386;2023-02-03T01:41:32;4.90;;;1.70;;
61709;SDS011;47633;51.494;5.386;2023-02-03T01:44:00;5.07;;;1.70;;
61709;SDS011;47633;51.494;5.386;2023-02-03T01:49:02;6.50;;;1.92;;
61709;SDS011;47633;51.494;5.386;2023-02-03T01:51:35;4.63;;;1.80;;
61709;SDS011;47633;51.494;5.386;2023-02-03T01:54:04;4.80;;;1.80;;
61709;SDS011;47633;51.494;5.386;2023-02-03T01:56:34;5.15;;;1.52;;
61709;SDS011;47633;51.494;5.386;2023-02-03T01:59:02;5.57;;;1.80;;
61709;SDS011;47633;51.494;5.386;2023-02-03T02:01:28;6.15;;;1.92;;
61709;SDS011;47633;51.494;5.386;2023-02-03T02:03:54;3.97;;;1.50;;
61709;SDS011;47633;51.494;5.386;2023-02-03T02:06:22;5.10;;;1.80;;
61709;SDS011;47633;51.494;5.386;2023-02-03T02:08:49;4.47;;;1.67;;
61709;SDS011;47633;51.494;5.386;2023-02-03T02:11:16;4.45;;;1.60;;
61709;SDS011;47633;51.494;5.386;2023-02-03T02:13:44;4.47;;;1.95;;
61709;SDS011;47633;51.494;5.386;2023-02-03T02:19:36;6.28;;;1.90;;
61709;SDS011;47633;51.494;5.386;2023-02-03T02:36:29;4.72;;;1.58;;
61709;SDS011;47633;51.494;5.386;2023-02-03T02:39:10;4.60;;;1.58;;
61709;SDS011;47633;51.494;5.386;2023-02-03T02:41:43;6.65;;;1.70;;
61709;SDS011;47633;51.494;5.386;2023-02-03T02:46:59;4.70;;;1.50;;
61709;SDS011;47633;51.494;5.386;2023-02-03T02:49:32;3.38;;;1.20;;
61709;SDS011;47633;51.494;5.386;2023-02-03T02:52:03;4.38;;;1.60;;
61709;SDS011;47633;51.494;5.386;2023-02-03T02:54:31;2.67;;;1.38;;
61709;SDS011;47633;51.494;5.386;2023-02-03T02:57:02;4.82;;;1.42;;
61709;SDS011;47633;51.494;5.386;2023-02-03T02:59:29;3.60;;;1.35;;
61709;SDS011;47633;51.494;5.386;2023-02-03T03:01:54;5.43;;;1.48;;
61709;SDS011;47633;51.494;5.386;2023-02-03T03:04:24;4.78;;;1.55;;
61709;SDS011;47633;51.494;5.386;2023-02-03T03:06:52;3.65;;;1.30;;
61709;SDS011;47633;51.494;5.386;2023-02-03T03:09:29;4.88;;;1.40;;
61709;SDS011;47633;51.494;5.386;2023-02-03T03:12:02;4.85;;;1.63;;
61709;SDS011;47633;51.494;5.386;2023-02-03T03:14:53;5.35;;;1.30;;
61709;SDS011;47633;51.494;5.386;2023-02-03T03:17:23;4.15;;;1.40;;
61709;SDS011;47633;51.494;5.386;2023-02-03T03:19:56;3.80;;;1.25;;
61709;SDS011;47633;51.494;5.386;2023-02-03T03:22:27;5.05;;;1.40;;
61709;SDS011;47633;51.494;5.386;2023-02-03T03:25:15;4.25;;;1.40;;
61709;SDS011;47633;51.494;5.386;2023-02-03T03:27:45;2.70;;;1.08;;
61709;SDS011;47633;51.494;5.386;2023-02-03T03:30:15;4.10;;;1.00;;
61709;SDS011;47633;51.494;5.386;2023-02-03T03:32:44;4.40;;;1.40;;
61709;SDS011;47633;51.494;5.386;2023-02-03T03:35:10;5.22;;;1.45;;
61709;SDS011;47633;51.494;5.386;2023-02-03T03:37:37;5.25;;;1.50;;
61709;SDS011;47633;51.494;5.386;2023-02-03T03:40:11;4.43;;;1.30;;
61709;SDS011;47633;51.494;5.386;2023-02-03T03:42:45;3.67;;;1.17;;
61709;SDS011;47633;51.494;5.386;2023-02-03T03:47:49;5.15;;;2.10;;
61709;SDS011;47633;51.494;5.386;2023-02-03T03:50:19;3.95;;;1.48;;
61709;SDS011;47633;51.494;5.386;2023-02-03T03:52:49;4.93;;;1.48;;
61709;SDS011;47633;51.494;5.386;2023-02-03T03:55:17;5.05;;;1.08;;
61709;SDS011;47633;51.494;5.386;2023-02-03T03:57:52;3.60;;;1.02;;
61709;SDS011;47633;51.494;5.386;2023-02-03T04:00:22;3.20;;;1.20;;
61709;SDS011;47633;51.494;5.386;2023-02-03T04:02:51;3.40;;;0.95;;
61709;SDS011;47633;51.494;5.386;2023-02-03T04:05:19;3.75;;;1.50;;
61709;SDS011;47633;51.494;5.386;2023-02-03T04:07:46;2.47;;;1.08;;
61709;SDS011;47633;51.494;5.386;2023-02-03T04:10:24;4.13;;;1.20;;
61709;SDS011;47633;51.494;5.386;2023-02-03T04:12:55;4.82;;;1.20;;
61709;SDS011;47633;51.494;5.386;2023-02-03T04:15:20;2.70;;;1.20;;
61709;SDS011;47633;51.494;5.386;2023-02-03T04:17:46;2.55;;;1.10;;
61709;SDS011;47633;51.494;5.386;2023-02-03T04:20:11;4.30;;;1.48;;
61709;SDS011;47633;51.494;5.386;2023-02-03T04:22:37;3.00;;;1.10;;
61709;SDS011;47633;51.494;5.386;2023-02-03T04:25:02;3.63;;;1.13;;
61709;SDS011;47633;51.494;5.386;2023-02-03T04:27:28;3.90;;;1.13;;
61709;SDS011;47633;51.494;5.386;2023-02-03T04:29:53;2.15;;;1.00;;
61709;SDS011;47633;51.494;5.386;2023-02-03T04:32:18;4.70;;;1.20;;
61709;SDS011;47633;51.494;5.386;2023-02-03T04:34:44;3.78;;;1.00;;
61709;SDS011;47633;51.494;5.386;2023-02-03T04:37:10;3.05;;;1.00;;
61709;SDS011;47633;51.494;5.386;2023-02-03T04:39:35;2.95;;;1.10;;
61709;SDS011;47633;51.494;5.386;2023-02-03T04:42:00;3.53;;;1.00;;
61709;SDS011;47633;51.494;5.386;2023-02-03T04:44:25;4.05;;;1.23;;
61709;SDS011;47633;51.494;5.386;2023-02-03T04:46:51;2.90;;;0.95;;
61709;SDS011;47633;51.494;5.386;2023-02-03T04:49:16;3.50;;;0.95;;
61709;SDS011;47633;51.494;5.386;2023-02-03T04:51:42;2.03;;;0.88;;
61709;SDS011;47633;51.494;5.386;2023-02-03T04:54:08;3.97;;;1.25;;
61709;SDS011;47633;51.494;5.386;2023-02-03T04:56:34;3.47;;;1.10;;
61709;SDS011;47633;51.494;5.386;2023-02-03T04:58:59;3.03;;;1.17;;
61709;SDS011;47633;51.494;5.386;2023-02-03T05:01:24;4.20;;;1.10;;
61709;SDS011;47633;51.494;5.386;2023-02-03T05:03:50;2.92;;;0.90;;
61709;SDS011;47633;51.494;5.386;2023-02-03T05:06:15;2.70;;;0.90;;
61709;SDS011;47633;51.494;5.386;2023-02-03T05:08:40;5.05;;;1.15;;
61709;SDS011;47633;51.494;5.386;2023-02-03T05:11:06;3.65;;;1.25;;
61709;SDS011;47633;51.494;5.386;2023-02-03T05:13:31;3.55;;;1.00;;
61709;SDS011;47633;51.494;5.386;2023-02-03T05:15:56;3.70;;;1.10;;
61709;SDS011;47633;51.494;5.386;2023-02-03T05:18:21;1.90;;;0.75;;
61709;SDS011;47633;51.494;5.386;2023-02-03T05:20:47;3.33;;;0.90;;
61709;SDS011;47633;51.494;5.386;2023-02-03T05:23:12;3.60;;;1.10;;
61709;SDS011;47633;51.494;5.386;2023-02-03T05:25:37;3.55;;;1.30;;
61709;SDS011;47633;51.494;5.386;2023-02-03T05:28:03;4.22;;;0.90;;
61709;SDS011;47633;51.494;5.386;2023-02-03T05:30:28;2.83;;;0.90;;
61709;SDS011;47633;51.494;5.386;2023-02-03T05:32:53;3.63;;;1.02;;
61709;SDS011;47633;51.494;5.386;2023-02-03T05:35:18;2.42;;;0.90;;
61709;SDS011;47633;51.494;5.386;2023-02-03T05:37:44;5.53;;;2.15;;
61709;SDS011;47633;51.494;5.386;2023-02-03T05:40:10;4.75;;;1.23;;
61709;SDS011;47633;51.494;5.386;2023-02-03T05:42:55;2.85;;;0.95;;
61709;SDS011;47633;51.494;5.386;2023-02-03T05:45:20;2.60;;;1.00;;
61709;SDS011;47633;51.494;5.386;2023-02-03T05:47:46;3.40;;;0.95;;
61709;SDS011;47633;51.494;5.386;2023-02-03T05:50:11;2.70;;;0.90;;
61709;SDS011;47633;51.494;5.386;2023-02-03T05:52:36;2.97;;;0.80;;
61709;SDS011;47633;51.494;5.386;2023-02-03T05:55:01;3.92;;;1.05;;
61709;SDS011;47633;51.494;5.386;2023-02-03T05:57:27;2.88;;;0.80;;
61709;SDS011;47633;51.494;5.386;2023-02-03T05:59:52;2.92;;;0.93;;
61709;SDS011;47633;51.494;5.386;2023-02-03T06:02:17;3.30;;;1.03;;
61709;SDS011;47633;51.494;5.386;2023-02-03T06:04:42;4.33;;;1.20;;
61709;SDS011;47633;51.494;5.386;2023-02-03T06:07:08;3.75;;;1.00;;
61709;SDS011;47633;51.494;5.386;2023-02-03T06:09:34;3.88;;;1.00;;
61709;SDS011;47633;51.494;5.386;2023-02-03T06:11:59;3.03;;;1.00;;
61709;SDS011;47633;51.494;5.386;2023-02-03T06:14:25;3.40;;;0.90;;
61709;SDS011;47633;51.494;5.386;2023-02-03T06:16:52;2.10;;;0.70;;
61709;SDS011;47633;51.494;5.386;2023-02-03T06:19:17;3.03;;;0.70;;
61709;SDS011;47633;51.494;5.386;2023-02-03T06:21:42;2.47;;;0.80;;
61709;SDS011;47633;51.494;5.386;2023-02-03T06:24:08;2.80;;;0.80;;
61709;SDS011;47633;51.494;5.386;2023-02-03T06:26:34;3.03;;;0.80;;
61709;SDS011;47633;51.494;5.386;2023-02-03T06:29:00;2.60;;;0.70;;
61709;SDS011;47633;51.494;5.386;2023-02-03T06:31:25;2.47;;;0.80;;
61709;SDS011;47633;51.494;5.386;2023-02-03T06:33:51;1.80;;;0.82;;
61709;SDS011;47633;51.494;5.386;2023-02-03T06:36:16;2.35;;;0.85;;
61709;SDS011;47633;51.494;5.386;2023-02-03T06:38:41;2.93;;;0.80;;
61709;SDS011;47633;51.494;5.386;2023-02-03T06:41:06;3.97;;;0.95;;
61709;SDS011;47633;51.494;5.386;2023-02-03T06:43:31;3.00;;;0.80;;
61709;SDS011;47633;51.494;5.386;2023-02-03T06:45:57;3.10;;;0.90;;
61709;SDS011;47633;51.494;5.386;2023-02-03T06:48:22;4.22;;;1.10;;
61709;SDS011;47633;51.494;5.386;2023-02-03T06:50:48;3.05;;;0.70;;
61709;SDS011;47633;51.494;5.386;2023-02-03T06:53:13;3.53;;;1.10;;
61709;SDS011;47633;51.494;5.386;2023-02-03T06:55:38;3.83;;;0.98;;
61709;SDS011;47633;51.494;5.386;2023-02-03T06:58:04;2.05;;;0.90;;
61709;SDS011;47633;51.494;5.386;2023-02-03T07:00:29;3.75;;;1.20;;
61709;SDS011;47633;51.494;5.386;2023-02-03T07:02:55;2.42;;;0.82;;
61709;SDS011;47633;51.494;5.386;2023-02-03T07:05:22;2.65;;;0.73;;
61709;SDS011;47633;51.494;5.386;2023-02-03T07:07:48;4.88;;;0.88;;
61709;SDS011;47633;51.494;5.386;2023-02-03T07:10:15;2.13;;;0.90;;
61709;SDS011;47633;51.494;5.386;2023-02-03T07:12:40;2.80;;;0.77;;
61709;SDS011;47633;51.494;5.386;2023-02-03T07:15:05;2.65;;;0.80;;
61709;SDS011;47633;51.494;5.386;2023-02-03T07:17:31;3.55;;;0.90;;
61709;SDS011;47633;51.494;5.386;2023-02-03T07:19:57;4.05;;;0.90;;
61709;SDS011;47633;51.494;5.386;2023-02-03T07:22:22;2.05;;;0.77;;
61709;SDS011;47633;51.494;5.386;2023-02-03T07:24:48;2.63;;;0.85;;
61709;SDS011;47633;51.494;5.386;2023-02-03T07:27:13;2.33;;;0.80;;
61709;SDS011;47633;51.494;5.386;2023-02-03T07:29:38;3.80;;;1.00;;
61709;SDS011;47633;51.494;5.386;2023-02-03T07:32:03;2.67;;;0.88;;
61709;SDS011;47633;51.494;5.386;2023-02-03T07:34:29;2.88;;;0.93;;
61709;SDS011;47633;51.494;5.386;2023-02-03T07:36:55;3.33;;;0.88;;
61709;SDS011;47633;51.494;5.386;2023-02-03T07:39:20;3.63;;;1.00;;
61709;SDS011;47633;51.494;5.386;2023-02-03T07:41:46;3.95;;;0.90;;
61709;SDS011;47633;51.494;5.386;2023-02-03T07:44:11;2.97;;;0.90;;
61709;SDS011;47633;51.494;5.386;2023-02-03T07:46:36;5.07;;;1.15;;
61709;SDS011;47633;51.494;5.386;2023-02-03T07:49:05;3.13;;;0.82;;
61709;SDS011;47633;51.494;5.386;2023-02-03T07:51:30;4.25;;;1.02;;
61709;SDS011;47633;51.494;5.386;2023-02-03T07:53:56;3.55;;;1.00;;
61709;SDS011;47633;51.494;5.386;2023-02-03T07:56:21;4.22;;;0.82;;
61709;SDS011;47633;51.494;5.386;2023-02-03T07:58:46;2.45;;;0.80;;
61709;SDS011;47633;51.494;5.386;2023-02-03T08:01:13;3.58;;;0.70;;
61709;SDS011;47633;51.494;5.386;2023-02-03T08:03:44;2.22;;;0.70;;
61709;SDS011;47633;51.494;5.386;2023-02-03T08:06:10;3.67;;;0.80;;
61709;SDS011;47633;51.494;5.386;2023-02-03T08:08:35;3.13;;;0.85;;
61709;SDS011;47633;51.494;5.386;2023-02-03T08:11:01;2.08;;;0.63;;
61709;SDS011;47633;51.494;5.386;2023-02-03T08:13:26;3.95;;;1.00;;
61709;SDS011;47633;51.494;5.386;2023-02-03T08:15:52;3.50;;;0.85;;
61709;SDS011;47633;51.494;5.386;2023-02-03T08:18:17;2.85;;;0.73;;
61709;SDS011;47633;51.494;5.386;2023-02-03T08:20:42;3.85;;;0.90;;
61709;SDS011;47633;51.494;5.386;2023-02-03T08:23:08;4.18;;;1.20;;
61709;SDS011;47633;51.494;5.386;2023-02-03T08:25:33;2.80;;;0.80;;
61709;SDS011;47633;51.494;5.386;2023-02-03T08:27:58;3.25;;;0.80;;
61709;SDS011;47633;51.494;5.386;2023-02-03T08:30:24;2.88;;;0.80;;
61709;SDS011;47633;51.494;5.386;2023-02-03T08:32:50;4.40;;;1.27;;
61709;SDS011;47633;51.494;5.386;2023-02-03T08:35:15;3.58;;;0.90;;
61709;SDS011;47633;51.494;5.386;2023-02-03T08:37:41;2.53;;;0.80;;
61709;SDS011;47633;51.494;5.386;2023-02-03T08:40:07;5.10;;;1.00;;
61709;SDS011;47633;51.494;5.386;2023-02-03T08:42:33;2.67;;;0.90;;
61709;SDS011;47633;51.494;5.386;2023-02-03T08:44:58;2.25;;;0.90;;
61709;SDS011;47633;51.494;5.386;2023-02-03T08:47:24;3.20;;;0.85;;
61709;SDS011;47633;51.494;5.386;2023-02-03T08:49:49;2.55;;;0.75;;
61709;SDS011;47633;51.494;5.386;2023-02-03T08:52:14;3.50;;;0.90;;
61709;SDS011;47633;51.494;5.386;2023-02-03T08:54:40;2.50;;;1.00;;
61709;SDS011;47633;51.494;5.386;2023-02-03T08:57:06;4.05;;;1.20;;
61709;SDS011;47633;51.494;5.386;2023-02-03T08:59:32;5.15;;;1.23;;
61709;SDS011;47633;51.494;5.386;2023-02-03T09:02:00;3.38;;;0.90;;
61709;SDS011;47633;51.494;5.386;2023-02-03T09:04:28;4.50;;;1.13;;
61709;SDS011;47633;51.494;5.386;2023-02-03T09:06:54;5.65;;;1.17;;
61709;SDS011;47633;51.494;5.386;2023-02-03T09:09:20;4.57;;;0.98;;
61709;SDS011;47633;51.494;5.386;2023-02-03T09:11:46;7.13;;;1.20;;
61709;SDS011;47633;51.494;5.386;2023-02-03T09:14:12;2.75;;;0.80;;
61709;SDS011;47633;51.494;5.386;2023-02-03T09:16:37;3.88;;;0.77;;
61709;SDS011;47633;51.494;5.386;2023-02-03T09:19:03;4.13;;;1.10;;
61709;SDS011;47633;51.494;5.386;2023-02-03T09:21:28;4.20;;;0.77;;
61709;SDS011;47633;51.494;5.386;2023-02-03T09:23:54;5.13;;;0.93;;
61709;SDS011;47633;51.494;5.386;2023-02-03T09:26:19;3.08;;;1.02;;
61709;SDS011;47633;51.494;5.386;2023-02-03T09:28:44;2.78;;;0.80;;
61709;SDS011;47633;51.494;5.386;2023-02-03T09:31:13;4.45;;;0.98;;
61709;SDS011;47633;51.494;5.386;2023-02-03T09:33:41;3.55;;;1.00;;
61709;SDS011;47633;51.494;5.386;2023-02-03T09:36:07;4.20;;;1.05;;
61709;SDS011;47633;51.494;5.386;2023-02-03T09:38:34;3.03;;;1.00;;
61709;SDS011;47633;51.494;5.386;2023-02-03T09:41:01;2.58;;;0.88;;
61709;SDS011;47633;51.494;5.386;2023-02-03T09:46:41;4.00;;;0.93;;
61709;SDS011;47633;51.494;5.386;2023-02-03T09:49:36;3.22;;;0.90;;
61709;SDS011;47633;51.494;5.386;2023-02-03T09:52:09;3.63;;;0.88;;
61709;SDS011;47633;51.494;5.386;2023-02-03T09:54:57;3.58;;;1.00;;
61709;SDS011;47633;51.494;5.386;2023-02-03T09:57:35;3.33;;;0.90;;
61709;SDS011;47633;51.494;5.386;2023-02-03T10:00:15;2.80;;;0.80;;
61709;SDS011;47633;51.494;5.386;2023-02-03T10:13:12;4.82;;;1.08;;
61709;SDS011;47633;51.494;5.386;2023-02-03T10:15:43;3.45;;;1.10;;
61709;SDS011;47633;51.494;5.386;2023-02-03T10:18:28;6.13;;;1.30;;
61709;SDS011;47633;51.494;5.386;2023-02-03T10:21:15;3.17;;;1.10;;
61709;SDS011;47633;51.494;5.386;2023-02-03T10:23:43;3.45;;;0.93;;
61709;SDS011;47633;51.494;5.386;2023-02-03T10:26:15;4.38;;;1.10;;
61709;SDS011;47633;51.494;5.386;2023-02-03T10:28:56;4.50;;;1.00;;
61709;SDS011;47633;51.494;5.386;2023-02-03T10:31:27;7.68;;;1.30;;
61709;SDS011;47633;51.494;5.386;2023-02-03T10:34:14;3.42;;;0.98;;
61709;SDS011;47633;51.494;5.386;2023-02-03T10:39:31;5.13;;;1.50;;
61709;SDS011;47633;51.494;5.386;2023-02-03T10:42:04;3.95;;;1.00;;
61709;SDS011;47633;51.494;5.386;2023-02-03T10:44:33;4.53;;;1.25;;
61709;SDS011;47633;51.494;5.386;2023-02-03T10:47:22;3.25;;;0.82;;
61709;SDS011;47633;51.494;5.386;2023-02-03T10:49:52;5.53;;;1.00;;
61709;SDS011;47633;51.494;5.386;2023-02-03T10:52:32;5.43;;;1.20;;
61709;SDS011;47633;51.494;5.386;2023-02-03T10:55:06;4.47;;;1.20;;
61709;SDS011;47633;51.494;5.386;2023-02-03T10:57:51;4.03;;;0.98;;
61709;SDS011;47633;51.494;5.386;2023-02-03T11:02:52;3.10;;;1.02;;
61709;SDS011;47633;51.494;5.386;2023-02-03T11:05:20;6.13;;;1.17;;
61709;SDS011;47633;51.494;5.386;2023-02-03T11:07:49;4.28;;;1.00;;
61709;SDS011;47633;51.494;5.386;2023-02-03T11:10:26;3.83;;;1.08;;
61709;SDS011;47633;51.494;5.386;2023-02-03T11:18:45;3.92;;;1.20;;
61709;SDS011;47633;51.494;5.386;2023-02-03T11:26:43;7.30;;;1.48;;
61709;SDS011;47633;51.494;5.386;2023-02-03T11:29:26;3.42;;;1.27;;
61709;SDS011;47633;51.494;5.386;2023-02-03T11:31:55;5.93;;;1.48;;
61709;SDS011;47633;51.494;5.386;2023-02-03T11:34:27;4.68;;;1.30;;
61709;SDS011;47633;51.494;5.386;2023-02-03T11:36:55;2.85;;;1.20;;
61709;SDS011;47633;51.494;5.386;2023-02-03T11:39:28;3.15;;;1.00;;
61709;SDS011;47633;51.494;5.386;2023-02-03T11:41:54;3.27;;;1.13;;
61709;SDS011;47633;51.494;5.386;2023-02-03T11:44:29;6.30;;;1.20;;
61709;SDS011;47633;51.494;5.386;2023-02-03T11:54:48;5.13;;;1.17;;
61709;SDS011;47633;51.494;5.386;2023-02-03T11:57:32;6.20;;;1.30;;
61709;SDS011;47633;51.494;5.386;2023-02-03T12:08:26;7.72;;;1.48;;
61709;SDS011;47633;51.494;5.386;2023-02-03T12:25:59;4.85;;;1.20;;
61709;SDS011;47633;51.494;5.386;2023-02-03T12:31:26;3.10;;;1.00;;
61709;SDS011;47633;51.494;5.386;2023-02-03T12:34:10;6.80;;;1.50;;
61709;SDS011;47633;51.494;5.386;2023-02-03T12:36:47;4.60;;;1.50;;
61709;SDS011;47633;51.494;5.386;2023-02-03T12:39:25;4.85;;;1.20;;
61709;SDS011;47633;51.494;5.386;2023-02-03T12:42:05;4.32;;;1.33;;
61709;SDS011;47633;51.494;5.386;2023-02-03T12:44:42;4.68;;;1.08;;
61709;SDS011;47633;51.494;5.386;2023-02-03T12:55:05;3.85;;;1.00;;
61709;SDS011;47633;51.494;5.386;2023-02-03T12:57:50;5.30;;;1.20;;
61709;SDS011;47633;51.494;5.386;2023-02-03T13:00:35;4.50;;;1.20;;
61709;SDS011;47633;51.494;5.386;2023-02-03T13:03:05;4.60;;;1.20;;
61709;SDS011;47633;51.494;5.386;2023-02-03T13:05:40;3.67;;;0.90;;
61709;SDS011;47633;51.494;5.386;2023-02-03T13:08:13;3.92;;;1.27;;
61709;SDS011;47633;51.494;5.386;2023-02-03T13:10:46;5.60;;;1.20;;
61709;SDS011;47633;51.494;5.386;2023-02-03T13:13:35;2.45;;;1.00;;
61709;SDS011;47633;51.494;5.386;2023-02-03T13:16:07;5.82;;;1.25;;
61709;SDS011;47633;51.494;5.386;2023-02-03T13:18:36;5.20;;;1.30;;
61709;SDS011;47633;51.494;5.386;2023-02-03T13:21:04;5.65;;;1.30;;
61709;SDS011;47633;51.494;5.386;2023-02-03T13:23:29;6.00;;;2.08;;
61709;SDS011;47633;51.494;5.386;2023-02-03T13:26:00;5.18;;;1.33;;
61709;SDS011;47633;51.494;5.386;2023-02-03T13:39:29;3.80;;;1.15;;
61709;SDS011;47633;51.494;5.386;2023-02-03T13:44:38;4.20;;;1.88;;
61709;SDS011;47633;51.494;5.386;2023-02-03T13:47:12;2.70;;;1.00;;
61709;SDS011;47633;51.494;5.386;2023-02-03T13:49:40;4.13;;;1.30;;
61709;SDS011;47633;51.494;5.386;2023-02-03T13:52:23;5.55;;;1.25;;
61709;SDS011;47633;51.494;5.386;2023-02-03T13:54:52;3.70;;;1.17;;
61709;SDS011;47633;51.494;5.386;2023-02-03T13:57:21;3.78;;;1.02;;
61709;SDS011;47633;51.494;5.386;2023-02-03T13:59:55;3.88;;;1.27;;
61709;SDS011;47633;51.494;5.386;2023-02-03T14:23:14;4.17;;;1.30;;
61709;SDS011;47633;51.494;5.386;2023-02-03T14:25:46;4.18;;;1.20;;
61709;SDS011;47633;51.494;5.386;2023-02-03T14:28:16;7.13;;;1.23;;
61709;SDS011;47633;51.494;5.386;2023-02-03T14:31:06;3.80;;;1.55;;
61709;SDS011;47633;51.494;5.386;2023-02-03T14:33:43;3.65;;;1.42;;
61709;SDS011;47633;51.494;5.386;2023-02-03T14:36:24;4.78;;;1.30;;
61709;SDS011;47633;51.494;5.386;2023-02-03T14:38:56;2.47;;;0.95;;
61709;SDS011;47633;51.494;5.386;2023-02-03T14:41:33;4.72;;;1.10;;
61709;SDS011;47633;51.494;5.386;2023-02-03T14:44:24;3.90;;;1.20;;
61709;SDS011;47633;51.494;5.386;2023-02-03T14:47:09;4.43;;;2.22;;
61709;SDS011;47633;51.494;5.386;2023-02-03T14:49:55;4.43;;;1.40;;
61709;SDS011;47633;51.494;5.386;2023-02-03T14:52:27;3.58;;;1.10;;
61709;SDS011;47633;51.494;5.386;2023-02-03T14:58:00;4.85;;;1.40;;
61709;SDS011;47633;51.494;5.386;2023-02-03T15:00:31;4.18;;;1.73;;
61709;SDS011;47633;51.494;5.386;2023-02-03T15:05:42;2.72;;;1.15;;
61709;SDS011;47633;51.494;5.386;2023-02-03T15:08:28;4.88;;;1.38;;
61709;SDS011;47633;51.494;5.386;2023-02-03T15:10:57;4.03;;;1.50;;
61709;SDS011;47633;51.494;5.386;2023-02-03T15:13:24;3.97;;;1.50;;
61709;SDS011;47633;51.494;5.386;2023-02-03T15:15:54;4.50;;;1.30;;
61709;SDS011;47633;51.494;5.386;2023-02-03T15:18:33;3.72;;;1.20;;
61709;SDS011;47633;51.494;5.386;2023-02-03T15:21:01;2.70;;;1.20;;
61709;SDS011;47633;51.494;5.386;2023-02-03T15:23:37;5.43;;;1.60;;
61709;SDS011;47633;51.494;5.386;2023-02-03T15:26:14;5.03;;;1.20;;
61709;SDS011;47633;51.494;5.386;2023-02-03T15:28:42;3.58;;;1.20;;
61709;SDS011;47633;51.494;5.386;2023-02-03T15:31:13;4.13;;;1.67;;
61709;SDS011;47633;51.494;5.386;2023-02-03T15:33:41;3.60;;;1.20;;
61709;SDS011;47633;51.494;5.386;2023-02-03T15:36:12;2.97;;;1.17;;
61709;SDS011;47633;51.494;5.386;2023-02-03T15:38:45;5.57;;;1.50;;
61709;SDS011;47633;51.494;5.386;2023-02-03T15:41:21;3.50;;;1.20;;
61709;SDS011;47633;51.494;5.386;2023-02-03T15:43:50;3.53;;;1.23;;
61709;SDS011;47633;51.494;5.386;2023-02-03T15:51:31;5.18;;;1.30;;
61709;SDS011;47633;51.494;5.386;2023-02-03T15:54:11;4.47;;;1.20;;
61709;SDS011;47633;51.494;5.386;2023-02-03T15:59:19;3.13;;;1.00;;
61709;SDS011;47633;51.494;5.386;2023-02-03T16:02:01;4.22;;;1.23;;
61709;SDS011;47633;51.494;5.386;2023-02-03T16:04:38;3.53;;;1.13;;
61709;SDS011;47633;51.494;5.386;2023-02-03T16:07:03;3.45;;;1.05;;
61709;SDS011;47633;51.494;5.386;2023-02-03T16:09:38;3.95;;;1.30;;
61709;SDS011;47633;51.494;5.386;2023-02-03T16:14:54;4.88;;;1.25;;
61709;SDS011;47633;51.494;5.386;2023-02-03T16:22:37;4.07;;;1.33;;
61709;SDS011;47633;51.494;5.386;2023-02-03T16:30:55;3.80;;;1.20;;
61709;SDS011;47633;51.494;5.386;2023-02-03T16:33:48;3.72;;;1.20;;
61709;SDS011;47633;51.494;5.386;2023-02-03T16:36:33;3.90;;;1.45;;
61709;SDS011;47633;51.494;5.386;2023-02-03T16:39:22;5.25;;;1.40;;
61709;SDS011;47633;51.494;5.386;2023-02-03T16:42:16;4.78;;;1.63;;
61709;SDS011;47633;51.494;5.386;2023-02-03T16:45:01;3.08;;;0.90;;
61709;SDS011;47633;51.494;5.386;2023-02-03T16:47:46;4.20;;;1.77;;
61709;SDS011;47633;51.494;5.386;2023-02-03T16:50:31;4.07;;;1.10;;
61709;SDS011;47633;51.494;5.386;2023-02-03T16:53:27;4.00;;;1.17;;
61709;SDS011;47633;51.494;5.386;2023-02-03T16:58:20;8.15;;;1.58;;
61709;SDS011;47633;51.494;5.386;2023-02-03T17:00:46;3.97;;;1.20;;
61709;SDS011;47633;51.494;5.386;2023-02-03T17:03:23;5.18;;;1.58;;
61709;SDS011;47633;51.494;5.386;2023-02-03T17:05:50;3.85;;;1.92;;
61709;SDS011;47633;51.494;5.386;2023-02-03T17:08:16;4.65;;;1.30;;
61709;SDS011;47633;51.494;5.386;2023-02-03T17:10:43;4.95;;;1.17;;
61709;SDS011;47633;51.494;5.386;2023-02-03T17:13:09;4.50;;;1.02;;
61709;SDS011;47633;51.494;5.386;2023-02-03T17:15:39;3.30;;;1.23;;
61709;SDS011;47633;51.494;5.386;2023-02-03T17:18:05;5.53;;;1.58;;
61709;SDS011;47633;51.494;5.386;2023-02-03T17:20:30;4.97;;;1.35;;
61709;SDS011;47633;51.494;5.386;2023-02-03T17:22:56;3.90;;;1.23;;
61709;SDS011;47633;51.494;5.386;2023-02-03T17:25:21;4.72;;;1.98;;
61709;SDS011;47633;51.494;5.386;2023-02-03T17:27:46;4.28;;;1.30;;
61709;SDS011;47633;51.494;5.386;2023-02-03T17:30:12;4.13;;;1.58;;
61709;SDS011;47633;51.494;5.386;2023-02-03T17:32:38;3.70;;;1.20;;
61709;SDS011;47633;51.494;5.386;2023-02-03T17:35:04;4.47;;;1.60;;
61709;SDS011;47633;51.494;5.386;2023-02-03T17:37:33;4.68;;;1.33;;
61709;SDS011;47633;51.494;5.386;2023-02-03T17:39:58;5.93;;;1.63;;
61709;SDS011;47633;51.494;5.386;2023-02-03T17:42:24;4.82;;;1.13;;
61709;SDS011;47633;51.494;5.386;2023-02-03T17:44:49;5.50;;;1.63;;